createdAt,value
2022-07-29T00:03:04.231Z,9.90
2022-07-29T00:09:52.673Z,7.43
2022-07-29T00:16:20.779Z,10.02
2022-07-29T00:19:53.064Z,10.32
2022-07-29T00:22:20.979Z,10.02
2022-07-29T00:24:49.621Z,14.63
2022-07-29T01:08:16.898Z,12.57
2022-07-29T01:10:46.152Z,9.82
2022-07-29T01:13:14.977Z,12.13
2022-07-29T01:18:32.145Z,13.48
2022-07-29T01:21:10.281Z,12.52
2022-07-29T01:23:46.454Z,7.47
2022-07-29T01:26:47.454Z,7.80
2022-07-29T01:29:38.673Z,13.75
2022-07-29T01:32:28.785Z,7.78
2022-07-29T01:35:21.710Z,9.82
2022-07-29T01:38:26.251Z,15.05
2022-07-29T01:41:09.549Z,8.77
2022-07-29T01:43:50.427Z,11.85
2022-07-29T01:46:38.597Z,9.95
2022-07-29T01:49:17.730Z,11.43
2022-07-29T01:52:00.376Z,9.90
2022-07-29T01:54:43.197Z,12.93
2022-07-29T01:57:14.693Z,15.73
2022-07-29T01:59:43.844Z,15.50
2022-07-29T02:02:14.300Z,17.13
2022-07-29T02:04:43.447Z,22.88
2022-07-29T02:07:17.211Z,30.20
2022-07-29T02:09:46.174Z,52.33
2022-07-29T02:12:15.059Z,66.22
2022-07-29T02:17:25.418Z,40.53
2022-07-29T02:19:59.557Z,25.33
2022-07-29T02:22:30.721Z,32.85
2022-07-29T02:25:01.669Z,25.77
2022-07-29T02:27:33.952Z,25.23
2022-07-29T02:30:03.987Z,18.17
2022-07-29T02:32:32.852Z,19.00
2022-07-29T02:37:31.235Z,16.27
2022-07-29T02:40:00.456Z,14.52
2022-07-29T02:42:28.174Z,10.65
2022-07-29T02:44:56.178Z,15.85
2022-07-29T02:47:41.911Z,8.40
2022-07-29T02:50:18.420Z,10.88
2022-07-29T02:52:57.837Z,6.90
2022-07-29T02:55:59.806Z,12.63
2022-07-29T02:58:34.148Z,6.60
2022-07-29T03:01:09.241Z,5.95
2022-07-29T03:03:39.288Z,5.22
2022-07-29T03:06:07.733Z,7.13
2022-07-29T03:08:35.990Z,8.13
2022-07-29T03:11:04.395Z,7.45
2022-07-29T03:13:32.098Z,9.57
2022-07-29T03:16:00.302Z,11.73
2022-07-29T03:18:27.912Z,10.25
2022-07-29T03:20:55.343Z,15.30
2022-07-29T03:23:24.313Z,14.48
2022-07-29T03:25:51.998Z,9.93
2022-07-29T03:28:19.984Z,15.90
2022-07-29T03:30:50.679Z,18.25
2022-07-29T03:33:18.372Z,13.68
2022-07-29T03:35:45.772Z,8.52
2022-07-29T03:38:13.021Z,11.88
2022-07-29T03:41:02.033Z,13.13
2022-07-29T03:43:34.911Z,22.85
2022-07-29T03:46:04.148Z,20.48
2022-07-29T03:48:35.965Z,21.55
2022-07-29T03:51:03.583Z,18.27
2022-07-29T03:53:30.804Z,12.77
2022-07-29T03:56:02.126Z,13.00
2022-07-29T03:58:32.043Z,10.35
2022-07-29T04:00:59.965Z,19.98
2022-07-29T04:03:27.300Z,16.25
2022-07-29T04:06:06.679Z,8.90
2022-07-29T04:08:35.059Z,11.95
2022-07-29T04:11:03.606Z,12.70
2022-07-29T04:13:32.189Z,9.20
2022-07-29T04:15:59.953Z,9.75
2022-07-29T04:18:27.152Z,11.50
2022-07-29T04:20:54.331Z,9.32
2022-07-29T04:23:21.513Z,9.63
2022-07-29T04:25:48.767Z,7.40
2022-07-29T04:28:15.887Z,15.13
2022-07-29T04:30:44.465Z,9.85
2022-07-29T04:33:12.356Z,13.52
2022-07-29T04:35:50.080Z,10.68
2022-07-29T04:40:45.129Z,20.95
2022-07-29T04:43:14.155Z,16.67
2022-07-29T04:45:41.444Z,31.30
2022-07-29T04:48:08.937Z,42.53
2022-07-29T04:50:40.117Z,64.40
2022-07-29T04:53:08.126Z,63.25
2022-07-29T04:55:36.703Z,57.33
2022-07-29T04:58:06.490Z,41.90
2022-07-29T05:00:33.861Z,35.00
2022-07-29T05:03:01.236Z,34.73
2022-07-29T05:05:28.550Z,33.50
2022-07-29T05:07:56.723Z,22.50
2022-07-29T05:12:51.216Z,14.93
2022-07-29T05:15:19.070Z,22.20
2022-07-29T05:17:46.366Z,23.50
2022-07-29T05:20:13.574Z,26.88
2022-07-29T05:22:40.723Z,30.00
2022-07-29T05:25:09.442Z,26.83
2022-07-29T05:27:37.262Z,23.00
2022-07-29T05:30:05.369Z,27.52
2022-07-29T05:32:32.477Z,37.72
2022-07-29T05:34:59.585Z,31.80
2022-07-29T05:37:26.741Z,30.95
2022-07-29T05:39:57.081Z,26.15
2022-07-29T05:42:26.959Z,25.10
2022-07-29T05:44:54.206Z,21.13
2022-07-29T05:47:21.810Z,20.13
2022-07-29T05:49:49.169Z,8.52
2022-07-29T05:52:16.350Z,13.93
2022-07-29T05:54:43.777Z,22.00
2022-07-29T05:57:23.484Z,22.38
2022-07-29T05:59:51.528Z,39.03
2022-07-29T06:02:19.244Z,21.67
2022-07-29T06:04:46.526Z,14.68
2022-07-29T06:07:13.776Z,13.77
2022-07-29T06:09:40.936Z,9.40
2022-07-29T06:12:08.681Z,12.25
2022-07-29T06:14:36.342Z,16.30
2022-07-29T06:17:03.522Z,18.83
2022-07-29T06:29:18.373Z,13.45
2022-07-29T06:34:12.730Z,7.50
2022-07-29T06:36:41.258Z,4.32
2022-07-29T06:39:09.276Z,18.95
2022-07-29T06:41:38.850Z,10.63
2022-07-29T06:44:10.243Z,12.05
2022-07-29T06:49:05.188Z,8.95
2022-07-29T06:51:32.439Z,5.55
2022-07-29T06:54:02.894Z,21.23
2022-07-29T06:56:39.195Z,9.70
2022-07-29T06:59:09.496Z,9.38
2022-07-29T07:01:43.368Z,5.00
2022-07-29T07:04:11.993Z,8.52
2022-07-29T07:06:39.716Z,8.32
2022-07-29T07:09:07.302Z,14.93
2022-07-29T07:14:03.773Z,9.48
2022-07-29T07:16:32.579Z,8.20
2022-07-29T07:19:00.832Z,5.95
2022-07-29T07:21:30.194Z,3.42
2022-07-29T07:23:59.286Z,7.43
2022-07-29T07:26:27.437Z,4.97
2022-07-29T07:28:54.643Z,4.90
2022-07-29T07:31:21.978Z,2.95
2022-07-29T07:33:49.340Z,4.20
2022-07-29T07:36:16.550Z,15.00
2022-07-29T07:38:43.703Z,6.32
2022-07-29T07:41:10.811Z,5.05
2022-07-29T07:43:38.218Z,10.05
2022-07-29T07:46:05.672Z,1.60
2022-07-29T07:48:35.168Z,14.48
2022-07-29T07:51:02.570Z,8.10
2022-07-29T07:53:30.116Z,3.88
2022-07-29T07:56:13.043Z,3.97
2022-07-29T07:58:40.585Z,2.75
2022-07-29T08:01:08.956Z,2.03
2022-07-29T08:03:36.273Z,3.40
2022-07-29T08:06:04.706Z,6.90
2022-07-29T08:08:31.977Z,3.50
2022-07-29T08:10:59.323Z,3.63
2022-07-29T08:13:30.677Z,2.90
2022-07-29T08:15:59.968Z,7.00
2022-07-29T08:18:29.660Z,2.40
2022-07-29T08:20:58.142Z,4.00
2022-07-29T08:23:30.249Z,3.72
2022-07-29T08:26:00.160Z,3.67
2022-07-29T08:28:27.242Z,3.10
2022-07-29T08:30:54.363Z,3.97
2022-07-29T08:33:21.625Z,8.57
2022-07-29T08:35:50.311Z,1.63
2022-07-29T08:38:17.434Z,2.30
2022-07-29T08:40:45.290Z,1.88
2022-07-29T08:43:12.949Z,2.40
2022-07-29T08:45:51.576Z,1.70
2022-07-29T08:48:24.253Z,6.18
2022-07-29T08:50:56.333Z,2.00
2022-07-29T08:53:27.290Z,2.97
2022-07-29T08:55:55.442Z,4.00
2022-07-29T09:00:56.398Z,1.50
2022-07-29T09:03:31.524Z,3.25
2022-07-29T09:05:59.875Z,5.22
2022-07-29T09:08:27.628Z,1.67
2022-07-29T09:10:58.760Z,2.58
2022-07-29T09:13:26.871Z,2.08
2022-07-29T09:15:54.241Z,2.83
2022-07-29T09:18:39.968Z,3.67
2022-07-29T09:21:28.742Z,1.95
2022-07-29T09:24:01.987Z,4.07
2022-07-29T09:26:34.185Z,2.25
2022-07-29T09:29:10.595Z,4.85
2022-07-29T09:31:44.017Z,4.47
2022-07-29T09:34:13.742Z,11.43
2022-07-29T09:36:47.712Z,3.85
2022-07-29T09:39:26.660Z,1.73
2022-07-29T09:41:57.700Z,5.30
2022-07-29T09:44:26.241Z,2.92
2022-07-29T09:47:08.211Z,4.93
2022-07-29T09:50:01.007Z,2.20
2022-07-29T09:52:30.262Z,3.42
2022-07-29T09:55:10.457Z,3.28
2022-07-29T10:00:20.249Z,4.35
2022-07-29T10:02:48.729Z,1.83
2022-07-29T10:05:26.320Z,2.83
2022-07-29T10:07:57.590Z,4.97
2022-07-29T10:10:31.904Z,5.30
2022-07-29T10:13:15.455Z,4.38
2022-07-29T10:15:46.516Z,2.22
2022-07-29T10:18:17.557Z,3.15
2022-07-29T10:20:44.825Z,3.38
2022-07-29T10:23:13.059Z,3.03
2022-07-29T10:25:45.673Z,3.17
2022-07-29T10:28:16.443Z,4.35
2022-07-29T10:30:45.925Z,7.13
2022-07-29T10:33:39.104Z,6.38
2022-07-29T10:36:36.989Z,2.90
2022-07-29T10:39:34.306Z,1.70
2022-07-29T10:42:14.377Z,3.25
2022-07-29T10:44:45.089Z,4.00
2022-07-29T10:50:04.646Z,6.22
2022-07-29T10:52:50.271Z,2.88
2022-07-29T10:55:43.329Z,2.53
2022-07-29T10:58:21.466Z,7.53
2022-07-29T11:03:49.752Z,1.67
2022-07-29T11:07:10.898Z,3.65
2022-07-29T11:09:38.988Z,1.60
2022-07-29T11:15:19.147Z,4.07
2022-07-29T11:17:59.667Z,5.35
2022-07-29T11:20:44.999Z,4.90
2022-07-29T11:23:36.037Z,2.13
2022-07-29T11:26:23.178Z,2.17
2022-07-29T11:29:05.194Z,4.05
2022-07-29T11:31:42.239Z,4.88
2022-07-29T11:34:36.012Z,4.68
2022-07-29T11:37:12.912Z,6.07
2022-07-29T11:40:05.901Z,2.97
2022-07-29T11:42:35.832Z,3.97
2022-07-29T11:45:42.786Z,5.10
2022-07-29T11:48:27.719Z,2.10
2022-07-29T11:50:48.163Z,2.28
2022-07-29T11:53:16.453Z,4.13
2022-07-29T11:58:26.138Z,2.50
2022-07-29T12:00:56.082Z,10.18
2022-07-29T12:03:35.119Z,4.25
2022-07-29T12:06:17.351Z,3.97
2022-07-29T12:08:45.350Z,2.20
2022-07-29T12:11:20.893Z,3.22
2022-07-29T12:13:50.411Z,4.95
2022-07-29T12:16:25.547Z,5.25
2022-07-29T12:19:01.997Z,3.53
2022-07-29T12:21:56.185Z,2.67
2022-07-29T12:24:26.930Z,4.20
2022-07-29T12:26:57.043Z,2.38
2022-07-29T12:29:35.203Z,2.20
2022-07-29T12:32:06.777Z,4.45
2022-07-29T12:34:42.549Z,12.63
2022-07-29T12:37:10.542Z,4.00
2022-07-29T12:39:37.887Z,12.82
2022-07-29T12:42:14.869Z,2.90
2022-07-29T12:44:50.932Z,4.15
2022-07-29T12:47:19.611Z,3.80
2022-07-29T12:50:14.929Z,6.95
2022-07-29T12:52:42.221Z,2.78
2022-07-29T12:55:09.437Z,4.83
2022-07-29T12:57:52.671Z,3.47
2022-07-29T13:00:27.298Z,4.53
2022-07-29T13:03:00.308Z,6.47
2022-07-29T13:05:49.065Z,9.88
2022-07-29T13:08:22.744Z,2.30
2022-07-29T13:10:50.360Z,2.42
2022-07-29T13:13:17.597Z,16.60
2022-07-29T13:15:48.880Z,4.97
2022-07-29T13:18:34.364Z,2.90
2022-07-29T13:21:16.202Z,3.88
2022-07-29T13:23:43.710Z,3.72
2022-07-29T13:26:16.664Z,3.17
2022-07-29T13:28:44.423Z,2.17
2022-07-29T13:31:11.880Z,13.43
2022-07-29T13:33:39.203Z,5.85
2022-07-29T13:36:06.795Z,2.72
2022-07-29T13:38:34.334Z,5.22
2022-07-29T13:41:03.033Z,3.22
2022-07-29T13:43:30.590Z,3.40
2022-07-29T13:45:57.730Z,4.50
2022-07-29T13:48:24.976Z,3.10
2022-07-29T13:50:52.138Z,4.33
2022-07-29T13:53:19.321Z,2.30
2022-07-29T13:55:55.206Z,2.60
2022-07-29T13:58:22.397Z,12.43
2022-07-29T14:00:49.687Z,2.80
2022-07-29T14:03:16.841Z,3.22
2022-07-29T14:05:44.137Z,6.10
2022-07-29T14:08:11.352Z,4.90
2022-07-29T14:10:38.582Z,2.17
2022-07-29T14:13:05.739Z,4.28
2022-07-29T14:15:55.208Z,2.85
2022-07-29T14:18:22.454Z,2.13
2022-07-29T14:20:51.018Z,2.33
2022-07-29T14:23:20.131Z,6.53
2022-07-29T14:25:47.758Z,2.38
2022-07-29T14:28:17.163Z,2.90
2022-07-29T14:30:44.355Z,3.83
2022-07-29T14:33:11.639Z,4.18
2022-07-29T14:35:38.873Z,2.50
2022-07-29T14:38:07.447Z,2.40
2022-07-29T14:40:34.627Z,5.32
2022-07-29T14:43:01.900Z,4.35
2022-07-29T14:45:29.222Z,6.95
2022-07-29T14:47:56.576Z,4.68
2022-07-29T14:50:31.576Z,6.65
2022-07-29T14:53:00.698Z,2.00
2022-07-29T14:55:28.091Z,4.47
2022-07-29T14:58:05.772Z,11.57
2022-07-29T15:05:31.438Z,2.42
2022-07-29T15:07:59.661Z,5.40
2022-07-29T15:10:27.589Z,3.38
2022-07-29T15:17:49.686Z,2.67
2022-07-29T15:20:16.903Z,3.63
2022-07-29T15:22:44.192Z,7.07
2022-07-29T15:25:11.331Z,5.22
2022-07-29T15:27:38.570Z,5.57
2022-07-29T15:30:06.426Z,8.73
2022-07-29T15:32:33.774Z,2.40
2022-07-29T15:35:00.979Z,4.82
2022-07-29T15:37:28.749Z,3.07
2022-07-29T15:40:16.138Z,2.53
2022-07-29T15:42:43.433Z,5.22
2022-07-29T15:45:10.968Z,2.40
2022-07-29T15:47:38.160Z,6.35
2022-07-29T15:50:07.028Z,2.60
2022-07-29T15:52:34.344Z,7.38
2022-07-29T15:55:01.531Z,3.38
2022-07-29T15:57:28.748Z,2.87
2022-07-29T15:59:56.634Z,6.33
2022-07-29T16:02:23.837Z,5.00
2022-07-29T16:04:51.098Z,6.27
2022-07-29T16:07:18.310Z,3.87
2022-07-29T16:09:50.770Z,5.93
2022-07-29T16:12:20.909Z,6.72
2022-07-29T16:14:50.315Z,8.00
2022-07-29T16:17:17.777Z,4.82
2022-07-29T16:19:45.306Z,4.85
2022-07-29T16:22:13.531Z,5.75
2022-07-29T16:24:41.084Z,12.32
2022-07-29T16:27:08.597Z,3.92
2022-07-29T16:29:36.516Z,8.50
2022-07-29T16:32:05.619Z,3.75
2022-07-29T16:34:32.962Z,3.90
2022-07-29T16:37:00.504Z,4.70
2022-07-29T16:39:28.055Z,3.22
2022-07-29T16:41:59.892Z,3.07
2022-07-29T16:44:28.024Z,2.53
2022-07-29T16:46:58.797Z,3.72
2022-07-29T16:49:27.733Z,5.53
2022-07-29T16:51:54.988Z,7.93
2022-07-29T16:54:22.324Z,7.20
2022-07-29T16:56:49.524Z,2.70
2022-07-29T16:59:16.692Z,3.72
2022-07-29T17:01:43.888Z,5.50
2022-07-29T17:04:14.211Z,5.27
2022-07-29T17:06:41.644Z,3.28
2022-07-29T17:09:10.944Z,7.32
2022-07-29T17:11:52.883Z,3.75
2022-07-29T17:14:27.538Z,2.78
2022-07-29T17:17:01.347Z,3.85
2022-07-29T17:19:33.137Z,7.90
2022-07-29T17:22:11.577Z,5.07
2022-07-29T17:24:41.636Z,7.50
2022-07-29T17:27:09.640Z,4.95
2022-07-29T17:29:38.172Z,4.40
2022-07-29T17:32:07.751Z,3.10
2022-07-29T17:34:40.486Z,3.70
2022-07-29T17:37:10.541Z,3.03
2022-07-29T17:39:40.539Z,5.18
2022-07-29T17:42:09.893Z,7.28
2022-07-29T17:44:37.607Z,4.40
2022-07-29T17:47:07.905Z,6.03
2022-07-29T17:49:37.939Z,7.35
2022-07-29T17:52:05.461Z,8.77
2022-07-29T17:54:32.780Z,3.65
2022-07-29T17:57:00.418Z,2.93
2022-07-29T17:59:27.820Z,5.22
2022-07-29T18:01:55.065Z,2.88
2022-07-29T18:04:22.819Z,4.40
2022-07-29T18:06:50.388Z,4.22
2022-07-29T18:09:17.805Z,4.43
2022-07-29T18:11:45.805Z,3.20
2022-07-29T18:16:40.148Z,5.28
2022-07-29T18:19:08.111Z,2.70
2022-07-29T18:21:38.145Z,2.35
2022-07-29T18:24:19.039Z,4.55
2022-07-29T18:26:46.220Z,5.93
2022-07-29T18:29:13.417Z,2.90
2022-07-29T18:31:40.722Z,5.43
2022-07-29T18:34:07.962Z,2.70
2022-07-29T18:36:35.159Z,10.63
2022-07-29T18:39:02.791Z,6.40
2022-07-29T18:41:29.879Z,6.72
2022-07-29T18:43:57.004Z,2.80
2022-07-29T18:46:25.510Z,2.90
2022-07-29T18:48:52.830Z,7.18
2022-07-29T18:51:20.041Z,4.80
2022-07-29T18:53:47.203Z,6.82
2022-07-29T18:56:14.775Z,3.80
2022-07-29T18:58:41.986Z,4.55
2022-07-29T19:01:12.386Z,6.38
2022-07-29T19:03:42.011Z,3.90
2022-07-29T19:06:09.411Z,4.25
2022-07-29T19:08:36.585Z,6.67
2022-07-29T19:11:03.743Z,7.05
2022-07-29T19:13:31.027Z,12.75
2022-07-29T19:15:58.283Z,5.18
2022-07-29T19:18:25.571Z,4.63
2022-07-29T19:20:53.292Z,4.55
2022-07-29T19:23:21.082Z,5.35
2022-07-29T19:25:53.548Z,10.60
2022-07-29T19:28:22.180Z,6.95
2022-07-29T19:30:49.580Z,5.50
2022-07-29T19:33:18.295Z,5.67
2022-07-29T19:35:47.635Z,6.15
2022-07-29T19:38:17.195Z,4.40
2022-07-29T19:40:44.540Z,16.17
2022-07-29T19:43:50.752Z,19.80
2022-07-29T19:45:59.073Z,10.37
2022-07-29T19:48:26.354Z,6.17
2022-07-29T19:50:53.530Z,11.30
2022-07-29T19:53:20.803Z,9.13
2022-07-29T19:55:48.035Z,6.97
2022-07-29T19:58:15.276Z,25.42
2022-07-29T20:00:42.708Z,19.37
2022-07-29T20:05:38.133Z,11.73
2022-07-29T20:08:05.704Z,7.77
2022-07-29T20:10:33.317Z,8.70
2022-07-29T20:13:00.523Z,10.82
2022-07-29T20:15:27.779Z,5.55
2022-07-29T20:17:57.367Z,17.60
2022-07-29T20:20:25.265Z,10.45
2022-07-29T20:22:53.401Z,10.00
2022-07-29T20:25:21.035Z,5.10
2022-07-29T20:27:51.582Z,4.40
2022-07-29T20:30:22.959Z,4.55
2022-07-29T20:32:50.672Z,5.53
2022-07-29T20:35:20.331Z,5.15
2022-07-29T20:37:52.436Z,9.23
2022-07-29T20:40:25.112Z,6.07
2022-07-29T20:42:53.970Z,5.30
2022-07-29T20:45:23.004Z,8.73
2022-07-29T20:47:51.561Z,5.05
2022-07-29T20:50:23.903Z,12.95
2022-07-29T20:52:52.285Z,5.70
2022-07-29T20:55:20.560Z,3.85
2022-07-29T21:00:15.258Z,14.10
2022-07-29T21:02:42.533Z,8.87
2022-07-29T21:05:10.163Z,5.60
2022-07-29T21:07:37.294Z,5.07
2022-07-29T21:10:05.140Z,5.25
2022-07-29T21:12:33.229Z,4.03
2022-07-29T21:15:05.188Z,3.05
2022-07-29T21:17:38.333Z,7.50
2022-07-29T21:20:07.949Z,7.35
2022-07-29T21:22:35.275Z,3.80
2022-07-29T21:25:03.094Z,7.10
2022-07-29T21:27:49.152Z,4.47
2022-07-29T21:30:16.457Z,5.85
2022-07-29T21:32:43.702Z,4.85
2022-07-29T21:35:18.231Z,2.45
2022-07-29T21:37:56.859Z,6.85
2022-07-29T21:40:23.962Z,3.83
2022-07-29T21:42:51.212Z,3.58
2022-07-29T21:45:18.423Z,6.65
2022-07-29T21:47:45.588Z,4.55
2022-07-29T21:50:12.754Z,5.70
2022-07-29T21:52:40.243Z,4.32
2022-07-29T21:55:08.073Z,8.50
2022-07-29T21:57:37.836Z,10.07
2022-07-29T22:00:14.952Z,6.03
2022-07-29T22:02:43.057Z,6.15
2022-07-29T22:05:11.897Z,3.15
2022-07-29T22:07:55.621Z,6.97
2022-07-29T22:10:26.351Z,3.40
2022-07-29T22:12:55.972Z,7.50
2022-07-29T22:15:24.387Z,6.72
2022-07-29T22:20:19.286Z,14.70
2022-07-29T22:22:46.559Z,7.70
2022-07-29T22:25:13.887Z,13.18
2022-07-29T22:27:41.424Z,15.77
2022-07-29T22:30:09.449Z,15.70
2022-07-29T22:32:36.617Z,16.00
2022-07-29T22:35:04.328Z,8.40
2022-07-29T22:37:31.662Z,4.60
2022-07-29T22:39:58.769Z,10.60
2022-07-29T22:42:26.042Z,9.00
2022-07-29T22:44:53.174Z,6.88
2022-07-29T22:47:46.062Z,10.23
2022-07-29T22:50:08.047Z,10.23
2022-07-29T22:52:35.242Z,6.68
2022-07-29T22:55:04.699Z,5.63
2022-07-29T22:57:31.906Z,2.90
2022-07-29T23:00:01.544Z,6.63
2022-07-29T23:02:28.812Z,5.00
2022-07-29T23:04:56.457Z,4.65
2022-07-29T23:07:23.812Z,4.60
2022-07-29T23:09:51.017Z,5.25
2022-07-29T23:12:18.118Z,5.03
2022-07-29T23:14:45.422Z,11.80
2022-07-29T23:17:12.595Z,5.93
2022-07-29T23:19:39.769Z,8.80
2022-07-29T23:22:07.168Z,4.88
2022-07-29T23:24:34.479Z,4.95
2022-07-29T23:27:01.962Z,3.00
2022-07-29T23:29:31.841Z,6.75
2022-07-29T23:32:02.189Z,4.88
2022-07-29T23:34:29.291Z,9.60
2022-07-29T23:36:56.385Z,3.30
2022-07-29T23:39:23.547Z,2.90
2022-07-29T23:41:50.645Z,6.53
2022-07-29T23:44:17.816Z,6.70
2022-07-29T23:46:44.980Z,3.10
2022-07-29T23:49:12.950Z,4.72
2022-07-29T23:51:40.127Z,6.10
2022-07-29T23:54:07.206Z,8.70
2022-07-29T23:56:34.354Z,4.22
2022-07-29T23:59:01.496Z,7.07
